Forks Of Salmon, California
Current Conditions -  °F | °C
As of 2:30 PM on Sunday 21 Dec 2014 (Local Time) from KO86 Reporting Station
Overcast Overcast  
Wind Chill: 52°   Ceiling: 1400
Heat Index: 52°   Visibility: 10mi
Dew Point: 48°   Wind: 0mph
Humidity: 88%   Direction: NA
Pressure: 30.24"   Gusts: NA
Location:  41.26°N, 123.33°W
Report Text: KO86 212230Z AUTO 00000KT 10SM OVC014 11/09 A3024 RMK AO1
Loading
Personal Weather Stations






























Interactive Weather Map New forecast layout! Learn more

10-Day Weather Forecast

Advertisements
Track Severe Weather on mobile